sensor_id;sensor_type;location;lat;lon;timestamp;pressure;altitude;pressure_sealevel;temperature;humidity
55014;BME280;40916;51.632;5.552;2023-02-12T00:00:46;1034.092631860801;;;7.402154890603541;0
55014;BME280;40916;51.632;5.552;2023-02-12T00:01:46;1034.1536127330864;;;7.409180439695639;0
55014;BME280;40916;51.632;5.552;2023-02-12T00:02:46;1034.1266884908418;;;7.39512884147706;0
55014;BME280;40916;51.632;5.552;2023-02-12T00:03:46;1034.0839820953188;;;7.388102292150652;0
55014;BME280;40916;51.632;5.552;2023-02-12T00:04:46;1034.0997578983754;;;7.381075242458696;0
55014;BME280;40916;51.632;5.552;2023-02-12T00:05:46;1034.0593500948137;;;7.3599910895322225;0
55014;BME280;40916;51.632;5.552;2023-02-12T00:06:47;1034.0922451953404;;;7.3599910895322225;0
55014;BME280;40916;51.632;5.552;2023-02-12T00:07:47;1034.138612181839;;;7.367019641315284;0
55014;BME280;40916;51.632;5.552;2023-02-12T00:08:48;1034.0922451953404;;;7.3599910895322225;0
55014;BME280;40916;51.632;5.552;2023-02-12T00:09:47;1034.1641976704248;;;7.367019641315284;0
55014;BME280;40916;51.632;5.552;2023-02-12T00:10:47;1034.115531214556;;;7.3740476922354965;0
55014;BME280;40916;51.632;5.552;2023-02-12T00:11:47;1034.2142196279797;;;7.3740476922354965;0
55014;BME280;40916;51.632;5.552;2023-02-12T00:12:47;1034.190930554081;;;7.3599910895322225;0
55014;BME280;40916;51.632;5.552;2023-02-12T00:13:47;1034.150725397577;;;7.3599910895322225;0
55014;BME280;40916;51.632;5.552;2023-02-12T00:14:47;1034.1580354249738;;;7.3599910895322225;0
55014;BME280;40916;51.632;5.552;2023-02-12T00:15:47;1034.1251403053936;;;7.3599910895322225;0
55014;BME280;40916;51.632;5.552;2023-02-12T00:16:47;1034.0862902196388;;;7.3740476922354965;0
55014;BME280;40916;51.632;5.552;2023-02-12T00:17:48;1034.1559308445837;;;7.39512884147706;0
55014;BME280;40916;51.632;5.552;2023-02-12T00:18:49;1034.1255300050188;;;7.402154890603541;0
55014;BME280;40916;51.632;5.552;2023-02-12T00:19:48;1034.1255300050188;;;7.402154890603541;0
55014;BME280;40916;51.632;5.552;2023-02-12T00:20:48;1034.1195514576161;;;7.416205488918834;0
55014;BME280;40916;51.632;5.552;2023-02-12T00:21:48;1034.1072532570547;;;7.402154890603541;0
55014;BME280;40916;51.632;5.552;2023-02-12T00:22:48;1034.2280524009536;;;7.423230038438529;0
55014;BME280;40916;51.632;5.552;2023-02-12T00:23:48;1034.223231815833;;;7.43025408842005;0
55014;BME280;40916;51.632;5.552;2023-02-12T00:24:48;1034.176875108746;;;7.423230038438529;0
55014;BME280;40916;51.632;5.552;2023-02-12T00:25:48;1034.158597509974;;;7.423230038438529;0
55014;BME280;40916;51.632;5.552;2023-02-12T00:26:49;1034.1876709700957;;;7.402154890603541;0
55014;BME280;40916;51.632;5.552;2023-02-12T00:27:49;1034.180360266557;;;7.402154890603541;0
55014;BME280;40916;51.632;5.552;2023-02-12T00:28:49;1034.1463019193934;;;7.409180439695639;0
55014;BME280;40916;51.632;5.552;2023-02-12T00:29:49;1034.264433385657;;;7.402154890603541;0
55014;BME280;40916;51.632;5.552;2023-02-12T00:30:49;1034.2617363020622;;;7.3740476922354965;0
55014;BME280;40916;51.632;5.552;2023-02-12T00:31:49;1034.2457557904308;;;7.3599910895322225;0
55014;BME280;40916;51.632;5.552;2023-02-12T00:32:49;1034.3640799752943;;;7.3740476922354965;0
55014;BME280;40916;51.632;5.552;2023-02-12T00:33:49;1034.2749959273046;;;7.3599910895322225;0
55014;BME280;40916;51.632;5.552;2023-02-12T00:34:49;1034.3211408697537;;;7.345932482713806;0
55014;BME280;40916;51.632;5.552;2023-02-12T00:35:54;1034.284591809006;;;7.345932482713806;0
55014;BME280;40916;51.632;5.552;2023-02-12T00:36:50;1034.2564928781683;;;7.3389024273464045;0
55014;BME280;40916;51.632;5.552;2023-02-12T00:37:50;1034.3051434532297;;;7.331871870452055;0
55014;BME280;40916;51.632;5.552;2023-02-12T00:38:51;1034.2452828287335;;;7.317809251417607;0
55014;BME280;40916;51.632;5.552;2023-02-12T00:39:50;1034.336649849836;;;7.317809251417607;0
55014;BME280;40916;51.632;5.552;2023-02-12T00:40:50;1034.2793068019337;;;7.3107771889448685;0
55014;BME280;40916;51.632;5.552;2023-02-12T00:41:50;1034.25232828374;;;7.296711557256234;0
55014;BME280;40916;51.632;5.552;2023-02-12T00:42:50;1034.243615377172;;;7.282643915466338;0
55014;BME280;40916;51.632;5.552;2023-02-12T00:43:51;1034.273972359478;;;7.275609340366746;0
55014;BME280;40916;51.632;5.552;2023-02-12T00:44:51;1034.2970178275118;;;7.268574262241689;0
55014;BME280;40916;51.632;5.552;2023-02-12T00:45:51;1034.3090978820842;;;7.261538680924296;0
55014;BME280;40916;51.632;5.552;2023-02-12T00:46:51;1034.2528602287082;;;7.247466008044658;0
55014;BME280;40916;51.632;5.552;2023-02-12T00:47:51;1034.2430099904327;;;7.2404289161483;0
55014;BME280;40916;51.632;5.552;2023-02-12T00:48:51;1034.240466048972;;;7.233391320391391;0
55014;BME280;40916;51.632;5.552;2023-02-12T00:49:51;1034.2148880215896;;;7.233391320391391;0
55014;BME280;40916;51.632;5.552;2023-02-12T00:50:51;1034.2561899109214;;;7.226353220606686;0
55014;BME280;40916;51.632;5.552;2023-02-12T00:51:51;1034.175464228212;;;7.205235895412297;0
55014;BME280;40916;51.632;5.552;2023-02-12T00:52:51;1034.0826687939527;;;7.191155155407682;0
55014;BME280;40916;51.632;5.552;2023-02-12T00:53:52;1034.1476789865774;;;7.219314616626871;0
55014;BME280;40916;51.632;5.552;2023-02-12T00:54:52;1034.1279651352081;;;7.205235895412297;0
55014;BME280;40916;51.632;5.552;2023-02-12T00:55:52;1034.1009371034224;;;7.191155155407682;0
55014;BME280;40916;51.632;5.552;2023-02-12T00:56:52;1034.0728062644569;;;7.18411402794003;0
55014;BME280;40916;51.632;5.552;2023-02-12T00:57:52;1034.1265127416164;;;7.191155155407682;0
55014;BME280;40916;51.632;5.552;2023-02-12T00:58:52;1034.1067846086864;;;7.177072395271836;0
55014;BME280;40916;51.632;5.552;2023-02-12T00:59:52;1034.2017769431407;;;7.177072395271836;0
55014;BME280;40916;51.632;5.552;2023-02-12T01:00:53;1034.1652414204875;;;7.177072395271836;0
55014;BME280;40916;51.632;5.552;2023-02-12T01:01:53;1034.0859574895694;;;7.170030257235265;0
55014;BME280;40916;51.632;5.552;2023-02-12T01:02:53;1034.1539005435886;;;7.155944464385275;0
55014;BME280;40916;51.632;5.552;2023-02-12T01:03:53;1034.1023571766839;;;7.134811980647349;0
55014;BME280;40916;51.632;5.552;2023-02-12T01:04:53;1034.1008653609674;;;7.120721126551047;0
55014;BME280;40916;51.632;5.552;2023-02-12T01:05:53;1034.0873308007754;;;7.113674939516525;0
55014;BME280;40916;51.632;5.552;2023-02-12T01:06:53;1034.0982899284597;;;7.113674939516525;0
55014;BME280;40916;51.632;5.552;2023-02-12T01:07:53;1034.0942048235452;;;7.092533336445218;0
55014;BME280;40916;51.632;5.552;2023-02-12T01:08:53;1034.1453450656095;;;7.092533336445218;0
55014;BME280;40916;51.632;5.552;2023-02-12T01:09:53;1034.130733565527;;;7.092533336445218;0
55014;BME280;40916;51.632;5.552;2023-02-12T01:10:54;1034.176702611284;;;7.078436397737843;0
55014;BME280;40916;51.632;5.552;2023-02-12T01:11:53;1034.0582914861848;;;7.0643374281269296;0
55014;BME280;40916;51.632;5.552;2023-02-12T01:12:54;1034.0056252408658;;;7.050236426260561;0
55014;BME280;40916;51.632;5.552;2023-02-12T01:13:54;1034.0698315905197;;;7.036133390785615;0
55014;BME280;40916;51.632;5.552;2023-02-12T01:14:54;1034.0703811655312;;;7.0079212135915085;0
55014;BME280;40916;51.632;5.552;2023-02-12T01:16:02;1034.0729860183992;;;7.014975021594211;0
55014;BME280;40916;51.632;5.552;2023-02-12T01:16:54;1034.135074336231;;;7.014975021594211;0
55014;BME280;40916;51.632;5.552;2023-02-12T01:17:54;1034.0448157927133;;;7.0079212135915085;0
55014;BME280;40916;51.632;5.552;2023-02-12T01:18:54;1034.1178597303174;;;7.0079212135915085;0
55014;BME280;40916;51.632;5.552;2023-02-12T01:19:55;1034.1423788464426;;;7.014975021594211;0
55014;BME280;40916;51.632;5.552;2023-02-12T01:20:54;1034.0828935367422;;;7.022028320347772;0
55014;BME280;40916;51.632;5.552;2023-02-12T01:21:55;1034.1543207961922;;;7.057287181310219;0
55014;BME280;40916;51.632;5.552;2023-02-12T01:22:55;1034.0917461246859;;;7.036133390785615;0
55014;BME280;40916;51.632;5.552;2023-02-12T01:23:55;1034.1532603498756;;;7.0643374281269296;0
55014;BME280;40916;51.632;5.552;2023-02-12T01:24:55;1034.1109528858453;;;7.078436397737843;0
55014;BME280;40916;51.632;5.552;2023-02-12T01:25:57;1034.1318025417966;;;7.085485120870022;0
55014;BME280;40916;51.632;5.552;2023-02-12T01:26:55;1034.1285894311673;;;7.106628245599779;0
55014;BME280;40916;51.632;5.552;2023-02-12T01:27:55;1034.0617595069568;;;7.113674939516525;0
55014;BME280;40916;51.632;5.552;2023-02-12T01:28:56;1034.1212834566338;;;7.106628245599779;0
55014;BME280;40916;51.632;5.552;2023-02-12T01:29:55;1034.0987039649117;;;7.134811980647349;0
55014;BME280;40916;51.632;5.552;2023-02-12T01:30:55;1034.0913975417204;;;7.134811980647349;0
55014;BME280;40916;51.632;5.552;2023-02-12T01:31:56;1034.1476808896048;;;7.148900809235823;0
55014;BME280;40916;51.632;5.552;2023-02-12T01:32:56;1034.1794742233894;;;7.155944464385275;0
55014;BME280;40916;51.632;5.552;2023-02-12T01:33:56;1034.2090840490819;;;7.177072395271836;0
55014;BME280;40916;51.632;5.552;2023-02-12T01:34:56;1034.114091708516;;;7.177072395271836;0
55014;BME280;40916;51.632;5.552;2023-02-12T01:35:56;1034.1725485240777;;;7.177072395271836;0
55014;BME280;40916;51.632;5.552;2023-02-12T01:36:56;1034.1192054158305;;;7.191155155407682;0
55014;BME280;40916;51.632;5.552;2023-02-12T01:37:56;1034.1129959265174;;;7.18411402794003;0
55014;BME280;40916;51.632;5.552;2023-02-12T01:38:56;1034.109696258573;;;7.205235895412297;0
55014;BME280;40916;51.632;5.552;2023-02-12T01:39:56;1034.1085922636728;;;7.212275508284563;0
55014;BME280;40916;51.632;5.552;2023-02-12T01:41:00;1034.1100320624098;;;7.226353220606686;0
55014;BME280;40916;51.632;5.552;2023-02-12T01:41:56;1034.15276997907;;;7.233391320391391;0
55014;BME280;40916;51.632;5.552;2023-02-12T01:42:59;1034.024879998501;;;7.233391320391391;0
55014;BME280;40916;51.632;5.552;2023-02-12T01:44:05;1034.0150295617332;;;7.226353220606686;0
55014;BME280;40916;51.632;5.552;2023-02-12T01:45:26;1034.128620310448;;;7.247466008044658;0
55014;BME280;40916;51.632;5.552;2023-02-12T01:45:57;1034.0873085483026;;;7.254502596247626;0
55014;BME280;40916;51.632;5.552;2023-02-12T01:46:58;1034.0920791838814;;;7.247466008044658;0
55014;BME280;40916;51.632;5.552;2023-02-12T01:47:58;1034.0456908858291;;;7.2404289161483;0
55014;BME280;40916;51.632;5.552;2023-02-12T01:48:57;1034.0237665620332;;;7.2404289161483;0
55014;BME280;40916;51.632;5.552;2023-02-12T01:49:57;1034.0971526496094;;;7.261538680924296;0
55014;BME280;40916;51.632;5.552;2023-02-12T01:50:58;1034.1468908781399;;;7.247466008044658;0
55014;BME280;40916;51.632;5.552;2023-02-12T01:51:58;1034.1556202604454;;;7.261538680924296;0
55014;BME280;40916;51.632;5.552;2023-02-12T01:52:58;1034.0796899725406;;;7.233391320391391;0
55014;BME280;40916;51.632;5.552;2023-02-12T01:53:59;1034.0796899725406;;;7.233391320391391;0
55014;BME280;40916;51.632;5.552;2023-02-12T01:54:59;1034.0453701461422;;;7.219314616626871;0
55014;BME280;40916;51.632;5.552;2023-02-12T01:55:59;1034.0307546050315;;;7.219314616626871;0
55014;BME280;40916;51.632;5.552;2023-02-12T01:56:58;1034.065850966637;;;7.205235895412297;0
55014;BME280;40916;51.632;5.552;2023-02-12T01:57:58;1034.0910742909032;;;7.18411402794003;0
55014;BME280;40916;51.632;5.552;2023-02-12T01:58:58;1034.0483278269712;;;7.177072395271836;0
55014;BME280;40916;51.632;5.552;2023-02-12T01:59:59;1034.067690026875;;;7.170030257235265;0
55014;BME280;40916;51.632;5.552;2023-02-12T02:00:59;1034.1517203795952;;;7.170030257235265;0
55014;BME280;40916;51.632;5.552;2023-02-12T02:01:59;1034.1137133441066;;;7.155944464385275;0
55014;BME280;40916;51.632;5.552;2023-02-12T02:02:59;1034.1038409871283;;;7.148900809235823;0
55014;BME280;40916;51.632;5.552;2023-02-12T02:04:00;1034.1133168127044;;;7.134811980647349;0
55014;BME280;40916;51.632;5.552;2023-02-12T02:05:00;1034.089906064061;;;7.120721126551047;0
55014;BME280;40916;51.632;5.552;2023-02-12T02:06:00;1034.0884065770501;;;7.106628245599779;0
55014;BME280;40916;51.632;5.552;2023-02-12T02:07:00;1034.061328965806;;;7.092533336445218;0
55014;BME280;40916;51.632;5.552;2023-02-12T02:07:59;1034.159956567571;;;7.092533336445218;0
55014;BME280;40916;51.632;5.552;2023-02-12T02:09:00;1034.1365222189932;;;7.078436397737843;0
55014;BME280;40916;51.632;5.552;2023-02-12T02:09:59;1034.150066635668;;;7.085485120870022;0
55014;BME280;40916;51.632;5.552;2023-02-12T02:11:00;1034.103184494357;;;7.057287181310219;0
55014;BME280;40916;51.632;5.552;2023-02-12T02:12:00;1034.1141422713838;;;7.057287181310219;0
55014;BME280;40916;51.632;5.552;2023-02-12T02:13:00;1034.0771364347718;;;7.036133390785615;0
55014;BME280;40916;51.632;5.552;2023-02-12T02:14:02;1034.0113928534138;;;7.036133390785615;0
55014;BME280;40916;51.632;5.552;2023-02-12T02:15:00;1034.0567607097685;;;7.050236426260561;0
55014;BME280;40916;51.632;5.552;2023-02-12T02:16:01;1033.9821734961363;;;7.036133390785615;0
55014;BME280;40916;51.632;5.552;2023-02-12T02:17:34;1034.036959797198;;;7.036133390785615;0
55014;BME280;40916;51.632;5.552;2023-02-12T02:18:01;1033.9952381380795;;;7.022028320347772;0
55014;BME280;40916;51.632;5.552;2023-02-12T02:19:01;1034.013499673889;;;7.022028320347772;0
55014;BME280;40916;51.632;5.552;2023-02-12T02:20:38;1034.0192504256493;;;7.0079212135915085;0
55014;BME280;40916;51.632;5.552;2023-02-12T02:21:10;1034.0182022367333;;;7.014975021594211;0
55014;BME280;40916;51.632;5.552;2023-02-12T02:22:05;1034.082382919666;;;7.000866896170034;0
55014;BME280;40916;51.632;5.552;2023-02-12T02:23:07;1034.003080192711;;;6.993812069160089;0
55014;BME280;40916;51.632;5.552;2023-02-12T02:24:07;1034.0296866405424;;;6.986756732391893;0
55014;BME280;40916;51.632;5.552;2023-02-12T02:25:07;1033.99785872333;;;6.979700885695589;0
55014;BME280;40916;51.632;5.552;2023-02-12T02:26:07;1033.9524590240173;;;6.96558766183886;0
55014;BME280;40916;51.632;5.552;2023-02-12T02:27:08;1033.9060204966536;;;6.958530284338348;0
55014;BME280;40916;51.632;5.552;2023-02-12T02:28:05;1034.0208084426035;;;6.972644528901245;0
55014;BME280;40916;51.632;5.552;2023-02-12T02:29:05;1033.9107057359315;;;6.951472396229555;0
55014;BME280;40916;51.632;5.552;2023-02-12T02:30:33;1034.0056510212878;;;6.951472396229555;0
55014;BME280;40916;51.632;5.552;2023-02-12T02:31:03;1033.9800888212687;;;6.951472396229555;0
55014;BME280;40916;51.632;5.552;2023-02-12T02:32:02;1034.0139843011218;;;6.944413997342245;0
55014;BME280;40916;51.632;5.552;2023-02-12T02:33:09;1033.9837405637768;;;6.951472396229555;0
55014;BME280;40916;51.632;5.552;2023-02-12T02:34:02;1033.9988036598925;;;6.9232357343057735;0
55014;BME280;40916;51.632;5.552;2023-02-12T02:35:04;1033.9690006649894;;;6.902052868127019;0
55014;BME280;40916;51.632;5.552;2023-02-12T02:36:06;1033.9653493179308;;;6.902052868127019;0
55014;BME280;40916;51.632;5.552;2023-02-12T02:37:03;1034.0612990394782;;;6.89499088901723;0
55014;BME280;40916;51.632;5.552;2023-02-12T02:38:05;1033.9464844064005;;;6.880865394197425;0
55014;BME280;40916;51.632;5.552;2023-02-12T02:39:03;1033.9923155836138;;;6.866737849437502;0
55014;BME280;40916;51.632;5.552;2023-02-12T02:40:04;1033.9740602569334;;;6.866737849437502;0
55014;BME280;40916;51.632;5.552;2023-02-12T02:41:03;1033.9614657476614;;;6.852608253368615;0
55014;BME280;40916;51.632;5.552;2023-02-12T02:42:04;1033.945212990998;;;6.838476604620702;0
55014;BME280;40916;51.632;5.552;2023-02-12T02:43:03;1033.9087046142854;;;6.838476604620702;0
55014;BME280;40916;51.632;5.552;2023-02-12T02:44:04;1033.9369112411034;;;6.845542685665215;0
55014;BME280;40916;51.632;5.552;2023-02-12T02:45:05;1033.9468619417335;;;6.852608253368615;0
55014;BME280;40916;51.632;5.552;2023-02-12T02:46:04;1033.9150058764492;;;6.845542685665215;0
55014;BME280;40916;51.632;5.552;2023-02-12T02:47:04;1033.9458578800006;;;6.8596733079022805;0
55014;BME280;40916;51.632;5.552;2023-02-12T02:48:03;1033.8804968185434;;;6.831410010063632;0
55014;BME280;40916;51.632;5.552;2023-02-12T02:49:04;1033.9389093088291;;;6.831410010063632;0
55014;BME280;40916;51.632;5.552;2023-02-12T02:50:05;1033.8934403734136;;;6.817275279725639;0
55014;BME280;40916;51.632;5.552;2023-02-12T02:51:05;1033.982047550518;;;6.810207143601438;0
55014;BME280;40916;51.632;5.552;2023-02-12T02:52:05;1033.917326592084;;;6.803138493278119;0
55014;BME280;40916;51.632;5.552;2023-02-12T02:53:05;1033.9594553465759;;;6.7889996493467315;0
55014;BME280;40916;51.632;5.552;2023-02-12T02:54:04;1034.0205285797872;;;6.7960693285838545;0
55014;BME280;40916;51.632;5.552;2023-02-12T02:55:04;1034.0224951368637;;;6.781929455394771;0
55014;BME280;40916;51.632;5.552;2023-02-12T02:56:05;1033.9716508099132;;;6.753643528996172;0
55014;BME280;40916;51.632;5.552;2023-02-12T02:57:05;1033.9696992333281;;;6.767787522658011;0
55014;BME280;40916;51.632;5.552;2023-02-12T02:58:05;1033.9808941394786;;;6.739497473030614;0
55014;BME280;40916;51.632;5.552;2023-02-12T02:59:05;1034.0062019805741;;;6.767787522658011;0
55014;BME280;40916;51.632;5.552;2023-02-12T03:00:06;1033.9378241101385;;;6.7607157835288625;0
55014;BME280;40916;51.632;5.552;2023-02-12T03:01:05;1033.9906223033;;;6.7748587465559105;0
55014;BME280;40916;51.632;5.552;2023-02-12T03:02:06;1034.0241790816256;;;6.7960693285838545;0
55014;BME280;40916;51.632;5.552;2023-02-12T03:03:06;1033.892761089361;;;6.7960693285838545;0
55014;BME280;40916;51.632;5.552;2023-02-12T03:04:06;1033.885460094249;;;6.7960693285838545;0
55014;BME280;40916;51.632;5.552;2023-02-12T03:05:05;1033.892761089361;;;6.7960693285838545;0
55014;BME280;40916;51.632;5.552;2023-02-12T03:06:06;1033.912685914735;;;6.810207143601438;0
55014;BME280;40916;51.632;5.552;2023-02-12T03:07:07;1033.8506255396753;;;6.810207143601438;0
55014;BME280;40916;51.632;5.552;2023-02-12T03:08:06;1033.8307026458697;;;6.7960693285838545;0
55014;BME280;40916;51.632;5.552;2023-02-12T03:09:08;1033.8864465036315;;;6.7889996493467315;0
55014;BME280;40916;51.632;5.552;2023-02-12T03:10:06;1033.868194300228;;;6.7889996493467315;0
55014;BME280;40916;51.632;5.552;2023-02-12T03:11:06;1033.9355793683274;;;6.803138493278119;0
55014;BME280;40916;51.632;5.552;2023-02-12T03:12:08;1033.7888704909658;;;6.781929455394771;0
55014;BME280;40916;51.632;5.552;2023-02-12T03:13:06;1033.8900969446643;;;6.7889996493467315;0
55014;BME280;40916;51.632;5.552;2023-02-12T03:14:07;1033.9239346807744;;;6.781929455394771;0
55014;BME280;40916;51.632;5.552;2023-02-12T03:15:07;1033.9355793683274;;;6.803138493278119;0
55014;BME280;40916;51.632;5.552;2023-02-12T03:16:07;1033.8625682809536;;;6.803138493278119;0
55014;BME280;40916;51.632;5.552;2023-02-12T03:17:08;1033.8861390393256;;;6.817275279725639;0
55014;BME280;40916;51.632;5.552;2023-02-12T03:18:07;1033.8559385758151;;;6.8243429018224795;0
55014;BME280;40916;51.632;5.552;2023-02-12T03:19:07;1033.8758470852774;;;6.838476604620702;0
55014;BME280;40916;51.632;5.552;2023-02-12T03:20:07;1033.8987507185307;;;6.831410010063632;0
55014;BME280;40916;51.632;5.552;2023-02-12T03:21:08;1033.9014029403509;;;6.838476604620702;0
55014;BME280;40916;51.632;5.552;2023-02-12T03:22:07;1033.918000874205;;;6.8243429018224795;0
55014;BME280;40916;51.632;5.552;2023-02-12T03:23:09;1033.9588166099827;;;6.845542685665215;0
55014;BME280;40916;51.632;5.552;2023-02-12T03:24:10;1033.8549413634896;;;6.831410010063632;0
55014;BME280;40916;51.632;5.552;2023-02-12T03:25:08;1033.951514819887;;;6.845542685665215;0
55014;BME280;40916;51.632;5.552;2023-02-12T03:26:07;1033.9269588011748;;;6.838476604620702;0
55014;BME280;40916;51.632;5.552;2023-02-12T03:27:07;1033.9024014988804;;;6.831410010063632;0
55014;BME280;40916;51.632;5.552;2023-02-12T03:28:08;1033.9097030599314;;;6.831410010063632;0
55014;BME280;40916;51.632;5.552;2023-02-12T03:29:07;1033.8960965297244;;;6.8243429018224795;0
55014;BME280;40916;51.632;5.552;2023-02-12T03:30:07;1033.9116937106874;;;6.817275279725639;0
55014;BME280;40916;51.632;5.552;2023-02-12T03:31:09;1033.8396737123023;;;6.810207143601438;0
55014;BME280;40916;51.632;5.552;2023-02-12T03:32:12;1033.8761798076519;;;6.810207143601438;0
55014;BME280;40916;51.632;5.552;2023-02-12T03:33:09;1033.8834810281298;;;6.810207143601438;0
55014;BME280;40916;51.632;5.552;2023-02-12T03:34:08;1033.8944328597265;;;6.810207143601438;0
55014;BME280;40916;51.632;5.552;2023-02-12T03:35:08;1033.910025482408;;;6.803138493278119;0
55014;BME280;40916;51.632;5.552;2023-02-12T03:36:09;1033.8881221561958;;;6.803138493278119;0
55014;BME280;40916;51.632;5.552;2023-02-12T03:37:08;1033.8754951812375;;;6.7889996493467315;0
55014;BME280;40916;51.632;5.552;2023-02-12T03:38:10;1033.9275850665117;;;6.781929455394771;0
55014;BME280;40916;51.632;5.552;2023-02-12T03:39:09;1033.9193004771487;;;6.7889996493467315;0
55014;BME280;40916;51.632;5.552;2023-02-12T03:40:10;1033.8528905209748;;;6.767787522658011;0
55014;BME280;40916;51.632;5.552;2023-02-12T03:41:09;1033.8183441440624;;;6.753643528996172;0
55014;BME280;40916;51.632;5.552;2023-02-12T03:42:09;1033.8173670261392;;;6.7607157835288625;0
55014;BME280;40916;51.632;5.552;2023-02-12T03:43:08;1033.8949974511222;;;6.753643528996172;0
55014;BME280;40916;51.632;5.552;2023-02-12T03:44:13;1033.861169587358;;;6.7607157835288625;0
55014;BME280;40916;51.632;5.552;2023-02-12T03:45:09;1033.8475453977949;;;6.753643528996172;0
55014;BME280;40916;51.632;5.552;2023-02-12T03:46:11;1033.8494924720267;;;6.739497473030614;0
55014;BME280;40916;51.632;5.552;2023-02-12T03:47:10;1033.958748411442;;;6.767787522658011;0
55014;BME280;40916;51.632;5.552;2023-02-12T03:48:10;1033.9295462249072;;;6.767787522658011;0
55014;BME280;40916;51.632;5.552;2023-02-12T03:49:09;1033.9093331389981;;;6.781929455394771;0
55014;BME280;40916;51.632;5.552;2023-02-12T03:50:10;1033.8180735454234;;;6.781929455394771;0
55014;BME280;40916;51.632;5.552;2023-02-12T03:51:11;1033.8253743102111;;;6.781929455394771;0
55014;BME280;40916;51.632;5.552;2023-02-12T03:52:09;1033.807122399122;;;6.781929455394771;0
55014;BME280;40916;51.632;5.552;2023-02-12T03:53:09;1033.7878846400977;;;6.7889996493467315;0
55014;BME280;40916;51.632;5.552;2023-02-12T03:54:09;1033.835340341493;;;6.7889996493467315;0
55014;BME280;40916;51.632;5.552;2023-02-12T03:55:09;1033.8864465036315;;;6.7889996493467315;0
55014;BME280;40916;51.632;5.552;2023-02-12T03:56:10;1033.8180735454234;;;6.781929455394771;0
55014;BME280;40916;51.632;5.552;2023-02-12T03:57:11;1033.8526056220535;;;6.7960693285838545;0
55014;BME280;40916;51.632;5.552;2023-02-12T03:58:12;1033.843626224233;;;6.781929455394771;0
55014;BME280;40916;51.632;5.552;2023-02-12T03:59:10;1033.883780445406;;;6.781929455394771;0
55014;BME280;40916;51.632;5.552;2023-02-12T04:00:11;1033.839975841194;;;6.781929455394771;0
55014;BME280;40916;51.632;5.552;2023-02-12T04:01:10;1033.866770483025;;;6.746570758887572;0
55014;BME280;40916;51.632;5.552;2023-02-12T04:02:10;1033.8239421654537;;;6.739497473030614;0
55014;BME280;40916;51.632;5.552;2023-02-12T04:03:10;1033.8438952406675;;;6.753643528996172;0
55014;BME280;40916;51.632;5.552;2023-02-12T04:04:10;1033.8458424278788;;;6.739497473030614;0
55014;BME280;40916;51.632;5.552;2023-02-12T04:05:18;1033.792063090768;;;6.732423671252782;0
55014;BME280;40916;51.632;5.552;2023-02-12T04:06:18;1033.7691915278647;;;6.739497473030614;0
55014;BME280;40916;51.632;5.552;2023-02-12T04:07:11;1033.8047187781356;;;6.746570758887572;0
55014;BME280;40916;51.632;5.552;2023-02-12T04:08:11;1033.8582277575629;;;6.781929455394771;0
55014;BME280;40916;51.632;5.552;2023-02-12T04:09:11;1033.8217239277587;;;6.781929455394771;0
55014;BME280;40916;51.632;5.552;2023-02-12T04:10:11;1033.7503917693314;;;6.7960693285838545;0
55014;BME280;40916;51.632;5.552;2023-02-12T04:11:12;1033.7812639841486;;;6.810207143601438;0
55014;BME280;40916;51.632;5.552;2023-02-12T04:12:16;1033.7663220572333;;;6.838476604620702;0
55014;BME280;40916;51.632;5.552;2023-02-12T04:13:15;1033.7616684421587;;;6.845542685665215;0
55014;BME280;40916;51.632;5.552;2023-02-12T04:14:13;1033.8608772970022;;;6.866737849437502;0
55014;BME280;40916;51.632;5.552;2023-02-12T04:15:15;1033.849924113317;;;6.866737849437502;0
55014;BME280;40916;51.632;5.552;2023-02-12T04:16:15;1033.807739762768;;;6.880865394197425;0
55014;BME280;40916;51.632;5.552;2023-02-12T04:17:13;1033.863697597445;;;6.9232357343057735;0